createdAt,value
2017-11-20T00:00:37.667Z,70.90
2017-11-20T00:03:10.093Z,70.80
2017-11-20T00:05:43.336Z,71.70
2017-11-20T00:08:15.799Z,70.70
2017-11-20T00:10:48.216Z,70.90
2017-11-20T00:13:21.514Z,70.90
2017-11-20T00:15:53.967Z,70.70
2017-11-20T00:18:26.527Z,70.90
2017-11-20T00:20:59.071Z,71.30
2017-11-20T00:23:32.431Z,71.70
2017-11-20T00:26:04.812Z,70.70
2017-11-20T00:28:37.183Z,71.70
2017-11-20T00:31:09.837Z,71.20
2017-11-20T00:33:42.466Z,71.00
2017-11-20T00:36:15.871Z,70.80
2017-11-20T00:38:49.523Z,71.60
2017-11-20T00:41:22.781Z,71.60
2017-11-20T00:43:55.711Z,71.10
2017-11-20T00:46:28.236Z,71.00
2017-11-20T00:49:02.302Z,71.40
2017-11-20T00:51:35.299Z,71.40
2017-11-20T00:54:07.959Z,71.40
2017-11-20T00:56:40.333Z,71.00
2017-11-20T00:59:12.730Z,71.10
2017-11-20T01:01:45.153Z,71.50
2017-11-20T01:04:18.445Z,70.50
2017-11-20T01:06:51.140Z,70.40
2017-11-20T01:09:23.574Z,70.80
2017-11-20T01:11:56.892Z,70.60
2017-11-20T01:14:29.466Z,71.00
2017-11-20T01:17:01.813Z,70.00
2017-11-20T01:19:34.397Z,70.00
2017-11-20T01:22:06.928Z,70.60
2017-11-20T01:24:40.326Z,70.40
2017-11-20T01:27:13.092Z,70.60
2017-11-20T01:29:46.425Z,70.80
2017-11-20T01:32:18.852Z,70.50
2017-11-20T01:34:51.354Z,70.40
2017-11-20T01:37:23.790Z,71.00
2017-11-20T01:39:56.340Z,70.60
2017-11-20T01:42:28.829Z,70.60
2017-11-20T01:45:01.819Z,70.40
2017-11-20T01:47:35.128Z,70.70
2017-11-20T01:50:07.850Z,70.40
2017-11-20T01:52:40.399Z,70.10
2017-11-20T01:55:13.785Z,70.30
2017-11-20T01:57:46.720Z,70.20
2017-11-20T02:00:19.323Z,70.40
2017-11-20T02:02:59.823Z,70.50
2017-11-20T02:05:32.709Z,71.30
2017-11-20T02:08:06.160Z,70.30
2017-11-20T02:10:39.346Z,69.90
2017-11-20T02:13:12.982Z,70.00
2017-11-20T02:15:45.976Z,70.00
2017-11-20T02:18:18.457Z,70.10
2017-11-20T02:20:51.024Z,70.40
2017-11-20T02:23:24.482Z,70.30
2017-11-20T02:25:58.783Z,70.50
2017-11-20T02:28:32.931Z,70.50
2017-11-20T02:31:05.922Z,70.50
2017-11-20T02:33:40.122Z,69.70
2017-11-20T02:36:13.469Z,70.00
2017-11-20T02:38:46.333Z,70.10
2017-11-20T02:41:18.825Z,70.10
2017-11-20T02:43:51.400Z,70.30
2017-11-20T02:46:23.971Z,70.70
2017-11-20T02:48:57.310Z,70.40
2017-11-20T02:51:30.759Z,71.10
2017-11-20T02:54:04.077Z,70.90
2017-11-20T02:56:36.700Z,70.90
2017-11-20T02:59:09.373Z,70.80
2017-11-20T03:01:42.774Z,70.20
2017-11-20T03:04:15.502Z,70.40
2017-11-20T03:06:47.958Z,70.80
2017-11-20T03:09:21.311Z,70.70
2017-11-20T03:11:54.000Z,70.70
2017-11-20T03:14:27.109Z,70.30
2017-11-20T03:16:59.628Z,70.30
2017-11-20T03:19:32.989Z,70.30
2017-11-20T03:22:06.989Z,70.60
2017-11-20T03:24:39.529Z,70.50
2017-11-20T03:27:12.887Z,70.50
2017-11-20T03:29:45.504Z,70.70
2017-11-20T03:32:17.985Z,70.20
2017-11-20T03:34:52.919Z,70.00
2017-11-20T03:37:25.851Z,70.00
2017-11-20T03:39:59.357Z,70.30
2017-11-20T03:42:31.844Z,70.90
2017-11-20T03:45:04.335Z,70.40
2017-11-20T03:47:36.804Z,70.50
2017-11-20T03:50:09.443Z,70.40
2017-11-20T03:52:43.566Z,69.80
2017-11-20T03:55:16.244Z,69.80
2017-11-20T03:57:48.677Z,70.10
2017-11-20T04:00:21.994Z,70.10
2017-11-20T04:02:54.482Z,70.20
2017-11-20T04:05:27.855Z,70.20
2017-11-20T04:08:01.636Z,70.20
2017-11-20T04:10:35.766Z,70.50
2017-11-20T04:13:08.465Z,70.50
2017-11-20T04:15:40.975Z,70.50
2017-11-20T04:18:13.492Z,70.40
2017-11-20T04:20:46.058Z,70.40
2017-11-20T04:23:18.539Z,70.40
2017-11-20T04:25:51.738Z,70.20
2017-11-20T04:28:24.476Z,70.20
2017-11-20T04:30:57.765Z,71.20
2017-11-20T04:33:30.294Z,70.50
2017-11-20T04:36:02.794Z,70.40
2017-11-20T04:38:36.811Z,71.40
2017-11-20T04:41:09.562Z,71.40
2017-11-20T04:43:42.962Z,71.00
2017-11-20T04:46:16.378Z,71.10
2017-11-20T04:48:50.588Z,70.80
2017-11-20T04:51:23.304Z,70.90
2017-11-20T04:53:56.785Z,70.90
2017-11-20T04:56:30.228Z,71.00
2017-11-20T04:59:03.623Z,70.90
2017-11-20T05:01:37.780Z,71.40
2017-11-20T05:04:10.608Z,71.40
2017-11-20T05:06:43.811Z,71.40
2017-11-20T05:09:16.205Z,72.10
2017-11-20T05:11:48.660Z,72.20
2017-11-20T05:14:21.011Z,72.60
2017-11-20T05:16:53.569Z,72.00
2017-11-20T05:19:26.922Z,71.90
2017-11-20T05:22:00.555Z,71.90
2017-11-20T05:24:33.553Z,71.90
2017-11-20T05:27:05.924Z,72.50
2017-11-20T05:29:38.688Z,72.40
2017-11-20T05:32:11.074Z,72.40
2017-11-20T05:34:43.458Z,72.10
2017-11-20T05:37:15.949Z,72.20
2017-11-20T05:39:48.393Z,71.80
2017-11-20T05:42:20.875Z,72.00
2017-11-20T05:44:53.358Z,72.10
2017-11-20T05:47:25.733Z,72.20
2017-11-20T05:49:59.776Z,71.90
2017-11-20T05:52:32.468Z,71.90
2017-11-20T05:55:04.882Z,71.70
2017-11-20T05:57:37.321Z,72.10
2017-11-20T06:00:10.580Z,71.90
2017-11-20T06:02:43.127Z,72.60
2017-11-20T06:05:15.740Z,71.80
2017-11-20T06:07:48.164Z,71.90
2017-11-20T06:10:21.562Z,72.10
2017-11-20T06:12:54.058Z,72.10
2017-11-20T06:15:26.554Z,72.50
2017-11-20T06:17:59.067Z,72.30
2017-11-20T06:20:31.694Z,71.90
2017-11-20T06:23:04.085Z,72.00
2017-11-20T06:25:36.609Z,72.50
2017-11-20T06:28:09.058Z,72.60
2017-11-20T06:30:41.507Z,72.50
2017-11-20T06:33:14.232Z,72.30
2017-11-20T06:35:47.814Z,72.00
2017-11-20T06:38:20.412Z,72.00
2017-11-20T06:40:52.935Z,72.10
2017-11-20T06:43:25.571Z,72.30
2017-11-20T06:45:58.109Z,72.30
2017-11-20T06:48:30.515Z,71.30
2017-11-20T06:51:03.880Z,71.60
2017-11-20T06:53:36.258Z,71.50
2017-11-20T06:56:08.762Z,71.40
2017-11-20T06:58:41.215Z,71.00
2017-11-20T07:01:14.629Z,71.00
2017-11-20T07:03:47.767Z,71.10
2017-11-20T07:06:20.392Z,70.60
2017-11-20T07:08:52.837Z,70.10
2017-11-20T07:11:25.351Z,70.00
2017-11-20T07:13:57.815Z,69.60
2017-11-20T07:16:30.263Z,69.90
2017-11-20T07:19:02.667Z,70.30
2017-11-20T07:21:35.349Z,69.50
2017-11-20T07:24:07.811Z,68.80
2017-11-20T07:26:58.900Z,69.20
2017-11-20T07:29:50.539Z,69.60
2017-11-20T07:32:23.714Z,69.60
2017-11-20T07:34:56.226Z,68.90
2017-11-20T07:37:48.608Z,68.70
2017-11-20T07:40:21.652Z,68.90
2017-11-20T07:42:55.444Z,69.40
2017-11-20T07:45:28.299Z,69.20
2017-11-20T07:48:01.005Z,69.10
2017-11-20T07:50:34.442Z,68.80
2017-11-20T07:53:06.957Z,69.40
2017-11-20T07:55:39.589Z,69.10
2017-11-20T07:58:12.143Z,70.00
2017-11-20T08:00:45.476Z,69.40
2017-11-20T08:03:18.030Z,69.00
2017-11-20T08:05:50.433Z,68.80
2017-11-20T08:08:23.010Z,68.80
2017-11-20T08:10:56.205Z,69.00
2017-11-20T08:13:28.706Z,69.20
2017-11-20T08:16:01.227Z,69.30
2017-11-20T08:18:34.495Z,69.60
2017-11-20T08:21:07.924Z,69.40
2017-11-20T08:23:42.047Z,69.70
2017-11-20T08:26:14.861Z,69.70
2017-11-20T08:28:47.429Z,70.00
2017-11-20T08:31:19.950Z,69.90
2017-11-20T08:33:52.404Z,69.60
2017-11-20T08:36:25.793Z,69.60
2017-11-20T08:38:58.410Z,69.80
2017-11-20T08:41:30.982Z,69.70
2017-11-20T08:44:04.292Z,69.20
2017-11-20T08:46:36.913Z,69.20
2017-11-20T08:49:09.618Z,69.60
2017-11-20T08:51:42.990Z,69.10
2017-11-20T08:54:15.686Z,68.70
2017-11-20T08:56:48.762Z,68.70
2017-11-20T08:59:22.181Z,69.30
2017-11-20T09:01:55.017Z,69.30
2017-11-20T09:04:27.681Z,69.80
2017-11-20T09:07:00.204Z,68.20
2017-11-20T09:09:33.592Z,67.80
2017-11-20T09:12:07.512Z,68.30
2017-11-20T09:14:40.745Z,68.20
2017-11-20T09:17:13.407Z,68.30
2017-11-20T09:19:46.904Z,67.60
2017-11-20T09:22:21.043Z,67.90
2017-11-20T09:24:54.444Z,67.80
2017-11-20T09:27:27.792Z,66.70
2017-11-20T09:30:01.311Z,66.60
2017-11-20T09:32:33.684Z,66.80
2017-11-20T09:35:06.107Z,66.70
2017-11-20T09:37:39.421Z,66.70
2017-11-20T09:40:12.823Z,66.80
2017-11-20T09:42:47.042Z,66.90
2017-11-20T09:45:19.573Z,66.30
2017-11-20T09:47:52.936Z,66.30
2017-11-20T09:50:27.054Z,66.40
2017-11-20T09:52:59.981Z,65.40
2017-11-20T09:55:32.564Z,65.90
2017-11-20T09:58:04.949Z,65.70
2017-11-20T10:00:37.394Z,66.00
2017-11-20T10:03:09.920Z,66.10
2017-11-20T10:05:42.475Z,65.40
2017-11-20T10:08:15.108Z,65.30
2017-11-20T10:10:49.261Z,66.00
2017-11-20T10:13:23.216Z,66.10
2017-11-20T10:15:56.793Z,65.90
2017-11-20T10:18:29.488Z,65.90
2017-11-20T10:21:02.087Z,66.40
2017-11-20T10:23:35.406Z,66.50
2017-11-20T10:26:07.976Z,66.50
2017-11-20T10:28:40.593Z,66.50
2017-11-20T10:31:13.053Z,66.50
2017-11-20T10:33:46.449Z,67.20
2017-11-20T10:36:19.725Z,67.00
2017-11-20T10:38:52.850Z,67.00
2017-11-20T10:41:25.407Z,67.30
2017-11-20T10:43:58.009Z,66.90
2017-11-20T10:46:31.328Z,66.90
2017-11-20T10:49:03.829Z,67.20
2017-11-20T10:51:37.404Z,67.90
2017-11-20T10:54:10.115Z,67.90
2017-11-20T10:56:42.633Z,67.20
2017-11-20T10:59:15.264Z,67.60
2017-11-20T11:01:48.298Z,67.10
2017-11-20T11:04:21.347Z,66.90
2017-11-20T11:06:53.815Z,67.10
2017-11-20T11:09:26.386Z,67.10
2017-11-20T11:11:59.746Z,66.90
2017-11-20T11:14:32.471Z,67.10
2017-11-20T11:17:05.022Z,67.00
2017-11-20T11:19:37.474Z,66.90
2017-11-20T11:22:10.015Z,67.20
2017-11-20T11:24:42.592Z,66.60
2017-11-20T11:27:15.251Z,66.80
2017-11-20T11:29:48.604Z,66.00
2017-11-20T11:32:21.034Z,66.20
2017-11-20T11:34:55.224Z,65.90
2017-11-20T11:37:27.941Z,65.90
2017-11-20T11:40:00.607Z,66.00
2017-11-20T11:42:33.783Z,66.50
2017-11-20T11:45:06.174Z,65.10
2017-11-20T11:47:38.649Z,65.80
2017-11-20T11:50:11.871Z,65.80
2017-11-20T11:52:44.704Z,65.70
2017-11-20T11:55:17.180Z,66.00
2017-11-20T11:57:49.661Z,66.70
2017-11-20T12:00:22.982Z,65.60
2017-11-20T12:02:55.585Z,65.60
2017-11-20T12:05:28.977Z,65.90
2017-11-20T12:08:01.605Z,65.50
2017-11-20T12:10:34.960Z,65.60
2017-11-20T12:13:09.128Z,66.30
2017-11-20T12:15:41.876Z,66.30
2017-11-20T12:18:14.448Z,66.20
2017-11-20T12:20:47.859Z,65.60
2017-11-20T12:23:21.074Z,65.90
2017-11-20T12:25:53.885Z,66.00
2017-11-20T12:28:27.090Z,65.80
2017-11-20T12:30:59.925Z,66.10
2017-11-20T12:33:32.478Z,66.00
2017-11-20T12:36:05.823Z,61.20
2017-11-20T12:38:38.637Z,61.20
2017-11-20T12:41:11.442Z,61.10
2017-11-20T12:43:43.841Z,61.10
2017-11-20T12:46:17.263Z,60.40
2017-11-20T12:48:50.682Z,61.60
2017-11-20T12:51:23.997Z,61.00
2017-11-20T12:53:57.148Z,62.40
2017-11-20T12:56:29.716Z,63.60
2017-11-20T12:59:02.447Z,63.10
2017-11-20T13:01:34.897Z,62.90
2017-11-20T13:04:08.295Z,61.90
2017-11-20T13:06:41.751Z,61.60
2017-11-20T13:09:15.049Z,62.20
2017-11-20T13:11:48.325Z,62.20
2017-11-20T13:14:21.015Z,62.70
2017-11-20T13:16:54.454Z,63.60
2017-11-20T13:19:26.901Z,63.50
2017-11-20T13:21:59.437Z,63.20
2017-11-20T13:24:31.901Z,63.90
2017-11-20T13:27:04.533Z,64.20
2017-11-20T13:29:45.114Z,64.20
2017-11-20T13:32:18.456Z,64.10
2017-11-20T13:34:51.790Z,64.60
2017-11-20T13:37:24.453Z,64.10
2017-11-20T13:39:57.899Z,63.70
2017-11-20T13:42:31.350Z,62.90
2017-11-20T13:45:03.805Z,62.60
2017-11-20T13:47:36.410Z,64.10
2017-11-20T13:50:09.108Z,62.70
2017-11-20T13:52:41.558Z,62.90
2017-11-20T13:55:14.825Z,62.70
2017-11-20T13:57:47.356Z,60.00
2017-11-20T14:00:20.747Z,59.70
2017-11-20T14:02:53.961Z,60.20
2017-11-20T14:05:26.724Z,60.10
2017-11-20T14:07:59.250Z,61.00
2017-11-20T14:10:31.754Z,60.60
2017-11-20T14:13:04.323Z,61.50
2017-11-20T14:15:36.726Z,62.40
2017-11-20T14:18:09.992Z,63.80
2017-11-20T14:20:42.792Z,63.80
2017-11-20T14:23:15.945Z,64.30
2017-11-20T14:25:48.561Z,64.80
2017-11-20T14:28:21.786Z,65.40
2017-11-20T14:30:54.357Z,66.10
2017-11-20T14:33:26.862Z,66.10
2017-11-20T14:35:59.470Z,66.20
2017-11-20T14:38:32.046Z,66.50
2017-11-20T14:41:05.489Z,67.30
2017-11-20T14:43:38.623Z,68.60
2017-11-20T14:46:12.188Z,69.30
2017-11-20T14:48:44.771Z,69.30
2017-11-20T14:54:19.001Z,70.20
2017-11-20T14:56:51.987Z,70.10
2017-11-20T14:59:25.293Z,70.40
2017-11-20T15:01:58.939Z,70.70
2017-11-20T15:04:32.101Z,70.80
2017-11-20T15:07:05.734Z,70.90
2017-11-20T15:09:39.128Z,71.00
2017-11-20T15:12:11.723Z,70.80
2017-11-20T15:14:45.150Z,71.50
2017-11-20T15:17:17.633Z,71.60
2017-11-20T15:19:50.175Z,71.30
2017-11-20T15:22:23.683Z,70.70
2017-11-20T15:24:56.162Z,70.90
2017-11-20T15:27:29.822Z,71.00
2017-11-20T15:30:03.163Z,71.40
2017-11-20T15:32:35.811Z,70.70
2017-11-20T15:35:09.629Z,70.40
2017-11-20T15:37:42.944Z,70.40
2017-11-20T15:40:15.459Z,70.40
2017-11-20T15:42:48.826Z,69.80
2017-11-20T15:45:21.946Z,69.60
2017-11-20T15:47:54.467Z,69.80
2017-11-20T15:50:26.847Z,70.40
2017-11-20T15:52:59.966Z,70.60
2017-11-20T15:55:33.636Z,70.00
2017-11-20T15:58:06.896Z,69.90
2017-11-20T16:00:39.928Z,69.90
2017-11-20T16:03:12.725Z,69.90
2017-11-20T16:05:46.389Z,70.10
2017-11-20T16:08:19.243Z,70.10
2017-11-20T16:10:51.926Z,70.00
2017-11-20T16:13:25.110Z,70.00
2017-11-20T16:15:57.991Z,69.90
2017-11-20T16:18:30.562Z,69.80
2017-11-20T16:21:03.032Z,69.60
2017-11-20T16:23:36.199Z,69.70
2017-11-20T16:26:08.740Z,69.50
2017-11-20T16:28:41.289Z,69.80
2017-11-20T16:31:13.997Z,69.90
2017-11-20T16:33:46.546Z,70.00
2017-11-20T16:36:19.204Z,69.70
2017-11-20T16:38:51.753Z,69.70
2017-11-20T16:41:24.980Z,69.70
2017-11-20T16:43:58.734Z,69.40
2017-11-20T16:46:31.723Z,69.40
2017-11-20T16:49:04.287Z,69.50
2017-11-20T16:51:36.747Z,69.70
2017-11-20T16:54:10.045Z,69.80
2017-11-20T16:57:02.100Z,69.80
2017-11-20T16:59:36.503Z,70.00
2017-11-20T17:02:37.883Z,69.90
2017-11-20T17:05:10.674Z,70.20
2017-11-20T17:07:43.327Z,70.10
2017-11-20T17:10:16.003Z,69.90
2017-11-20T17:12:49.447Z,70.10
2017-11-20T17:15:21.958Z,70.00
2017-11-20T17:17:54.424Z,70.10
2017-11-20T17:20:27.037Z,70.20
2017-11-20T17:22:59.695Z,69.80
2017-11-20T17:25:32.273Z,69.60
2017-11-20T17:28:04.913Z,69.60
2017-11-20T17:30:37.413Z,69.50
2017-11-20T17:33:10.830Z,68.80
2017-11-20T17:35:43.593Z,68.90
2017-11-20T17:38:16.245Z,68.80
2017-11-20T17:40:48.835Z,68.70
2017-11-20T17:43:21.462Z,68.50
2017-11-20T17:45:54.834Z,68.20
2017-11-20T17:48:28.957Z,68.60
2017-11-20T17:51:02.684Z,68.50
2017-11-20T17:53:35.275Z,68.50
2017-11-20T17:56:07.938Z,68.50
2017-11-20T17:58:40.515Z,68.40
2017-11-20T18:01:13.029Z,67.30
2017-11-20T18:03:45.450Z,66.90
2017-11-20T18:06:18.238Z,66.50
2017-11-20T18:08:50.662Z,66.20
2017-11-20T18:11:24.208Z,65.90
2017-11-20T18:13:57.111Z,64.70
2017-11-20T18:16:30.577Z,64.90
2017-11-20T18:19:03.870Z,63.40
2017-11-20T18:21:37.127Z,63.00
2017-11-20T18:24:10.735Z,63.60
2017-11-20T18:26:43.970Z,63.10
2017-11-20T18:29:17.135Z,62.40
2017-11-20T18:31:50.475Z,61.90
2017-11-20T18:34:23.366Z,61.20
2017-11-20T18:36:56.597Z,60.80
2017-11-20T18:39:31.025Z,60.30
2017-11-20T18:42:04.812Z,59.60
2017-11-20T18:44:39.068Z,60.10
2017-11-20T18:47:14.724Z,59.80
2017-11-20T18:49:48.522Z,59.80
2017-11-20T18:52:21.999Z,60.60
2017-11-20T18:54:55.887Z,61.00
2017-11-20T18:57:30.903Z,61.50
2017-11-20T19:00:23.339Z,60.80
2017-11-20T19:03:16.959Z,61.50
2017-11-20T19:09:18.572Z,60.10
2017-11-20T19:11:53.619Z,59.70
2017-11-20T19:14:28.182Z,58.80
2017-11-20T19:17:03.774Z,59.20
2017-11-20T19:19:38.284Z,59.00
2017-11-20T19:22:12.818Z,59.20
2017-11-20T19:24:47.996Z,58.60
2017-11-20T19:27:23.623Z,58.60
2017-11-20T19:29:59.241Z,58.60
2017-11-20T19:32:34.749Z,58.90
2017-11-20T19:35:10.335Z,58.90
2017-11-20T19:37:45.049Z,59.30
2017-11-20T19:40:20.741Z,58.50
2017-11-20T19:42:55.999Z,59.20
2017-11-20T19:45:31.218Z,59.30
2017-11-20T19:48:06.217Z,59.90
2017-11-20T19:50:41.525Z,60.10
2017-11-20T19:53:16.564Z,60.40
2017-11-20T19:55:51.838Z,60.40
2017-11-20T19:58:26.154Z,61.70
2017-11-20T20:01:00.990Z,63.60
2017-11-20T20:03:36.390Z,65.10
2017-11-20T20:06:10.875Z,65.10
2017-11-20T20:08:45.677Z,66.30
2017-11-20T20:11:21.610Z,68.00
2017-11-20T20:13:56.878Z,68.80
2017-11-20T20:16:40.130Z,68.80
2017-11-20T20:19:15.272Z,69.20
2017-11-20T20:21:50.648Z,70.10
2017-11-20T20:24:25.137Z,71.00
2017-11-20T20:26:59.652Z,71.60
2017-11-20T20:29:33.765Z,72.40
2017-11-20T20:32:08.542Z,73.20
2017-11-20T20:34:43.068Z,73.90
2017-11-20T20:37:17.674Z,75.10
2017-11-20T20:39:52.151Z,75.00
2017-11-20T20:42:27.319Z,75.60
2017-11-20T20:45:02.152Z,75.60
2017-11-20T20:47:36.827Z,75.80
2017-11-20T20:50:11.368Z,76.40
2017-11-20T20:52:46.409Z,77.20
2017-11-20T20:55:22.108Z,77.50
2017-11-20T20:57:56.939Z,77.40
2017-11-20T21:00:31.068Z,78.00
2017-11-20T21:03:06.113Z,78.20
2017-11-20T21:05:40.403Z,78.80
2017-11-20T21:08:19.238Z,78.60
2017-11-20T21:10:59.159Z,78.90
2017-11-20T21:13:34.212Z,79.50
2017-11-20T21:16:08.721Z,79.60
2017-11-20T21:18:43.986Z,79.80
2017-11-20T21:21:19.271Z,81.00
2017-11-20T21:23:54.202Z,80.40
2017-11-20T21:26:29.234Z,80.60
2017-11-20T21:29:04.223Z,81.00
2017-11-20T21:31:39.234Z,81.10
2017-11-20T21:34:14.096Z,81.00
2017-11-20T21:36:48.971Z,80.60
2017-11-20T21:39:23.390Z,80.40
2017-11-20T21:41:57.851Z,80.90
2017-11-20T21:44:32.899Z,80.70
2017-11-20T21:47:08.580Z,80.80
2017-11-20T21:49:42.998Z,80.80
2017-11-20T21:52:17.924Z,80.90
2017-11-20T21:54:51.829Z,80.50
2017-11-20T21:57:26.436Z,80.50
2017-11-20T22:00:01.445Z,80.60
2017-11-20T22:02:35.414Z,80.60
2017-11-20T22:05:09.673Z,80.80
2017-11-20T22:07:44.436Z,81.10
2017-11-20T22:10:17.963Z,81.00
2017-11-20T22:13:09.695Z,80.90
2017-11-20T22:15:42.873Z,81.00
2017-11-20T22:18:16.324Z,81.00
2017-11-20T22:20:49.126Z,81.00
2017-11-20T22:23:21.746Z,81.20
2017-11-20T22:25:54.615Z,80.80
2017-11-20T22:28:27.048Z,80.90
2017-11-20T22:31:01.277Z,81.10
2017-11-20T22:33:34.251Z,81.10
2017-11-20T22:36:07.208Z,81.20
2017-11-20T22:38:39.705Z,81.20
2017-11-20T22:41:13.391Z,80.20
2017-11-20T22:43:46.106Z,80.20
2017-11-20T22:46:20.344Z,81.10
2017-11-20T22:48:52.826Z,80.30
2017-11-20T22:51:25.810Z,79.50
2017-11-20T22:53:59.170Z,79.30
2017-11-20T22:56:32.648Z,78.90
2017-11-20T22:59:05.535Z,78.90
2017-11-20T23:01:39.591Z,78.70
2017-11-20T23:04:12.714Z,78.70
2017-11-20T23:06:45.953Z,78.40
2017-11-20T23:09:19.474Z,78.20
2017-11-20T23:11:53.687Z,77.70
2017-11-20T23:14:26.644Z,77.70
2017-11-20T23:17:00.106Z,77.50
2017-11-20T23:19:32.664Z,78.60
2017-11-20T23:22:06.188Z,77.80
2017-11-20T23:24:39.859Z,75.90
2017-11-20T23:27:12.662Z,75.90
2017-11-20T23:29:45.379Z,75.60
2017-11-20T23:32:17.823Z,76.10
2017-11-20T23:34:50.875Z,75.70
2017-11-20T23:37:23.320Z,75.80
2017-11-20T23:39:55.817Z,75.50
2017-11-20T23:42:28.651Z,75.00
2017-11-20T23:45:01.482Z,75.10
2017-11-20T23:47:34.620Z,75.30
2017-11-20T23:50:07.366Z,75.50
2017-11-20T23:52:40.102Z,75.70
2017-11-20T23:55:12.710Z,74.00
2017-11-20T23:57:45.975Z,73.70
